Time;durP1;ratioP1;P1;durP2;ratioP2;P2;SDS_P1;SDS_P2;PMS_P1;PMS_P2;Temp;Humidity;BMP_temperature;BMP_pressure;BME280_temperature;BME280_humidity;BME280_pressure;Samples;Min_cycle;Max_cycle;Signal;HPM_P1;HPM_P2
2020/12/12 00:01:15;;;;;;;40.47;23.30;;;;;;;;;;4346196;33;20194;-76
2020/12/12 00:03:40;;;;;;;41.67;23.33;;;;;;;;;;4346257;33;20630;-75
2020/12/12 00:06:05;;;;;;;37.70;21.33;;;;;;;;;;4346538;33;20163;-76
2020/12/12 00:08:30;;;;;;;40.73;23.93;;;;;;;;;;4346472;33;20155;-76
2020/12/12 00:10:56;;;;;;;43.63;24.10;;;;;;;;;;4346361;33;20186;-76
2020/12/12 00:13:21;;;;;;;38.07;22.40;;;;;;;;;;4346648;33;20178;-76
2020/12/12 00:15:46;;;;;;;36.53;22.07;;;;;;;;;;4346326;33;20183;-76
2020/12/12 00:18:11;;;;;;;38.33;21.60;;;;;;;;;;4346082;33;20225;-76
2020/12/12 00:20:37;;;;;;;39.50;22.70;;;;;;;;;;4346138;33;20175;-76
2020/12/12 00:23:02;;;;;;;44.13;24.63;;;;;;;;;;4352681;32;20158;-75
2020/12/12 00:25:27;;;;;;;42.73;22.67;;;;;;;;;;4360876;32;20181;-75
2020/12/12 00:27:52;;;;;;;43.20;23.43;;;;;;;;;;4361740;32;20182;-76
2020/12/12 00:30:18;;;;;;;38.43;22.67;;;;;;;;;;4364004;32;20211;-76
2020/12/12 00:32:43;;;;;;;41.03;23.73;;;;;;;;;;4363922;32;20158;-76
2020/12/12 00:35:08;;;;;;;37.50;21.83;;;;;;;;;;4364627;32;20151;-75
2020/12/12 00:37:34;;;;;;;42.53;23.73;;;;;;;;;;4377730;32;20153;-76
2020/12/12 00:39:59;;;;;;;43.57;23.50;;;;;;;;;;4364072;32;20188;-76
2020/12/12 00:42:25;;;;;;;55.17;26.30;;;;;;;;;;4363862;32;20203;-76
2020/12/12 00:44:50;;;;;;;39.10;22.73;;;;;;;;;;4363736;32;20184;-76
2020/12/12 00:47:15;;;;;;;48.00;24.30;;;;;;;;;;4364010;32;20226;-75
2020/12/12 00:49:40;;;;;;;48.83;24.87;;;;;;;;;;4363798;32;20179;-76
2020/12/12 00:52:06;;;;;;;46.30;23.77;;;;;;;;;;4363756;32;20213;-76
2020/12/12 00:54:32;;;;;;;50.37;26.03;;;;;;;;;;4363733;32;20193;-76
2020/12/12 00:56:57;;;;;;;49.60;24.77;;;;;;;;;;4377234;32;20135;-76
2020/12/12 00:59:22;;;;;;;41.33;23.93;;;;;;;;;;4359859;32;20210;-75
2020/12/12 01:01:48;;;;;;;50.20;25.73;;;;;;;;;;4377202;32;20154;-76
2020/12/12 01:04:14;;;;;;;50.73;25.37;;;;;;;;;;4351394;32;20167;-77
2020/12/12 01:06:39;;;;;;;63.13;28.07;;;;;;;;;;4364136;32;20163;-76
2020/12/12 01:09:04;;;;;;;49.53;25.70;;;;;;;;;;4364112;32;20159;-77
2020/12/12 01:11:30;;;;;;;44.20;23.60;;;;;;;;;;4363523;32;20186;-76
2020/12/12 01:13:55;;;;;;;44.90;25.77;;;;;;;;;;4377556;32;20130;-76
2020/12/12 01:16:25;;;;;;;47.20;24.73;;;;;;;;;;4363462;32;20218;-76
2020/12/12 01:18:51;;;;;;;54.27;27.70;;;;;;;;;;4363633;32;20186;-76
2020/12/12 01:21:17;;;;;;;45.37;24.03;;;;;;;;;;4363229;32;20253;-76
2020/12/12 01:23:43;;;;;;;56.63;26.43;;;;;;;;;;4363703;32;20158;-76
2020/12/12 01:26:08;;;;;;;54.90;27.30;;;;;;;;;;4363369;32;20201;-76
2020/12/12 01:28:34;;;;;;;39.80;23.97;;;;;;;;;;4376913;32;20139;-76
2020/12/12 01:31:00;;;;;;;44.47;24.50;;;;;;;;;;4376832;32;20499;-76
2020/12/12 01:33:25;;;;;;;45.33;25.23;;;;;;;;;;4376879;32;20127;-76
2020/12/12 01:35:53;;;;;;;46.30;24.70;;;;;;;;;;4363406;32;20540;-76
2020/12/12 01:38:18;;;;;;;44.93;24.20;;;;;;;;;;4376911;32;20188;-77
2020/12/12 01:40:43;;;;;;;39.90;23.60;;;;;;;;;;4363437;32;20181;-76
2020/12/12 01:43:09;;;;;;;49.30;25.47;;;;;;;;;;4363117;32;20208;-76
2020/12/12 01:45:34;;;;;;;65.53;28.23;;;;;;;;;;4362825;32;20230;-76
2020/12/12 01:48:00;;;;;;;55.53;26.97;;;;;;;;;;4362909;32;20158;-76
2020/12/12 01:50:26;;;;;;;42.23;24.40;;;;;;;;;;4363026;32;20159;-76
2020/12/12 01:52:54;;;;;;;43.37;23.60;;;;;;;;;;4376313;32;20200;-76
2020/12/12 01:55:20;;;;;;;88.27;32.63;;;;;;;;;;4363389;32;20155;-76
2020/12/12 01:57:50;;;;;;;56.47;26.63;;;;;;;;;;4363496;32;20181;-76
2020/12/12 02:00:15;;;;;;;45.57;24.43;;;;;;;;;;4362980;32;20170;-77
2020/12/12 02:02:48;;;;;;;45.27;23.83;;;;;;;;;;4376283;32;20500;-77
2020/12/12 02:05:38;;;;;;;48.23;24.93;;;;;;;;;;4362740;32;20606;-76
2020/12/12 02:08:01;;;;;;;47.07;24.20;;;;;;;;;;4376671;32;20220;-76
2020/12/12 02:10:27;;;;;;;68.17;29.47;;;;;;;;;;4362767;32;20193;-76
2020/12/12 02:12:52;;;;;;;102.10;33.50;;;;;;;;;;4372057;32;20229;-77
2020/12/12 02:15:17;;;;;;;48.97;25.30;;;;;;;;;;4370457;32;20179;-76
2020/12/12 02:17:45;;;;;;;48.37;24.53;;;;;;;;;;4362554;32;20162;-77
2020/12/12 02:20:10;;;;;;;49.97;25.40;;;;;;;;;;4362216;32;20216;-76
2020/12/12 02:22:36;;;;;;;54.00;25.00;;;;;;;;;;4376076;32;20189;-76
2020/12/12 02:25:01;;;;;;;55.77;26.60;;;;;;;;;;4376247;32;20131;-76
2020/12/12 02:27:29;;;;;;;48.43;24.47;;;;;;;;;;4362478;32;20198;-76
2020/12/12 02:29:54;;;;;;;84.40;30.27;;;;;;;;;;4362428;32;20154;-77
2020/12/12 02:32:19;;;;;;;60.13;27.50;;;;;;;;;;4377372;32;20130;-76
2020/12/12 02:34:44;;;;;;;53.73;26.30;;;;;;;;;;4376051;32;20185;-76
2020/12/12 02:37:10;;;;;;;49.33;24.93;;;;;;;;;;4362303;32;20217;-76
2020/12/12 02:39:35;;;;;;;62.50;28.93;;;;;;;;;;4376100;32;20146;-76
2020/12/12 02:42:01;;;;;;;52.80;26.53;;;;;;;;;;4375713;32;20216;-77
2020/12/12 02:44:26;;;;;;;52.27;26.67;;;;;;;;;;4362031;32;20281;-76
2020/12/12 02:46:51;;;;;;;48.67;25.50;;;;;;;;;;4362040;32;20278;-76
2020/12/12 02:49:17;;;;;;;62.40;27.87;;;;;;;;;;4362748;32;20158;-76
2020/12/12 02:51:44;;;;;;;43.97;23.77;;;;;;;;;;4375581;32;20539;-76
2020/12/12 02:54:10;;;;;;;43.27;23.03;;;;;;;;;;4362157;32;20216;-76
2020/12/12 02:56:35;;;;;;;43.70;23.60;;;;;;;;;;4362019;32;20155;-75
2020/12/12 02:59:01;;;;;;;42.10;23.07;;;;;;;;;;4376112;32;20132;-76
2020/12/12 03:01:26;;;;;;;45.77;24.73;;;;;;;;;;4375705;32;20178;-76
2020/12/12 03:03:52;;;;;;;51.97;26.80;;;;;;;;;;4362358;32;20196;-76
2020/12/12 03:06:17;;;;;;;55.10;25.37;;;;;;;;;;4362480;32;20170;-76
2020/12/12 03:08:42;;;;;;;46.80;24.83;;;;;;;;;;4375894;32;20169;-76
2020/12/12 03:11:10;;;;;;;50.40;25.03;;;;;;;;;;4362295;32;20154;-76
2020/12/12 03:13:35;;;;;;;41.57;23.73;;;;;;;;;;4375234;32;20212;-76
2020/12/12 03:16:01;;;;;;;56.13;26.93;;;;;;;;;;4362330;32;20154;-76
2020/12/12 03:18:26;;;;;;;59.07;26.13;;;;;;;;;;4361855;32;20264;-76
2020/12/12 03:20:51;;;;;;;42.83;23.63;;;;;;;;;;4362556;32;20599;-76
2020/12/12 03:23:17;;;;;;;56.40;25.70;;;;;;;;;;4361539;32;20197;-76
2020/12/12 03:25:42;;;;;;;49.97;24.97;;;;;;;;;;4361629;32;20159;-76
2020/12/12 03:28:07;;;;;;;93.53;31.53;;;;;;;;;;4361775;32;20473;-76
2020/12/12 03:30:36;;;;;;;56.17;25.43;;;;;;;;;;4361969;32;20154;-77
2020/12/12 03:33:02;;;;;;;39.63;22.27;;;;;;;;;;4361789;32;20177;-76
2020/12/12 03:35:28;;;;;;;43.77;22.57;;;;;;;;;;4361679;32;20174;-75
2020/12/12 03:37:54;;;;;;;44.43;23.53;;;;;;;;;;4375416;32;20138;-75
2020/12/12 03:40:22;;;;;;;44.73;23.20;;;;;;;;;;4361762;32;20157;-75
2020/12/12 03:42:48;;;;;;;41.83;22.67;;;;;;;;;;4361372;32;20208;-76
2020/12/12 03:45:13;;;;;;;43.07;23.20;;;;;;;;;;4361061;32;20187;-75
2020/12/12 03:47:38;;;;;;;46.03;23.50;;;;;;;;;;4375166;32;20490;-76
2020/12/12 03:50:04;;;;;;;40.40;22.23;;;;;;;;;;4367744;32;20557;-75
2020/12/12 03:52:29;;;;;;;45.10;24.10;;;;;;;;;;4353107;32;20308;-75
2020/12/12 03:54:54;;;;;;;71.23;27.67;;;;;;;;;;4374305;32;20556;-76
2020/12/12 03:57:19;;;;;;;48.67;24.00;;;;;;;;;;4375570;32;20207;-75
2020/12/12 03:59:45;;;;;;;48.00;25.23;;;;;;;;;;4361133;32;20185;-76
2020/12/12 04:02:10;;;;;;;45.23;23.43;;;;;;;;;;4373786;32;20166;-75
2020/12/12 04:04:38;;;;;;;57.40;26.17;;;;;;;;;;4360564;32;20155;-76
2020/12/12 04:07:04;;;;;;;53.87;23.93;;;;;;;;;;4361667;32;20155;-76
2020/12/12 04:09:29;;;;;;;82.13;29.27;;;;;;;;;;4361082;32;20620;-75
2020/12/12 04:11:54;;;;;;;52.67;24.90;;;;;;;;;;4361439;32;20463;-76
2020/12/12 04:14:19;;;;;;;54.47;25.53;;;;;;;;;;4361102;32;20154;-75
2020/12/12 04:16:45;;;;;;;78.77;28.63;;;;;;;;;;4361042;32;20163;-76
2020/12/12 04:19:10;;;;;;;70.73;26.43;;;;;;;;;;4361166;32;20167;-75
2020/12/12 04:21:35;;;;;;;49.07;24.00;;;;;;;;;;4360661;32;20155;-76
2020/12/12 04:24:00;;;;;;;50.63;24.90;;;;;;;;;;4360944;32;20170;-76
2020/12/12 04:26:26;;;;;;;57.93;26.60;;;;;;;;;;4361248;32;20708;-76
2020/12/12 04:28:51;;;;;;;47.67;25.20;;;;;;;;;;4360965;32;20158;-76
2020/12/12 04:31:16;;;;;;;107.93;32.70;;;;;;;;;;4374792;32;20546;-76
2020/12/12 04:33:41;;;;;;;49.50;25.00;;;;;;;;;;4361318;32;20158;-76
2020/12/12 04:36:07;;;;;;;65.37;26.77;;;;;;;;;;4360914;32;20158;-75
2020/12/12 04:38:35;;;;;;;42.80;23.33;;;;;;;;;;4360866;32;20508;-76
2020/12/12 04:41:01;;;;;;;46.10;23.63;;;;;;;;;;4374714;32;20165;-75
2020/12/12 04:43:26;;;;;;;43.93;23.73;;;;;;;;;;4375329;32;20324;-76
2020/12/12 04:45:52;;;;;;;67.07;26.97;;;;;;;;;;4373131;32;20176;-75
2020/12/12 04:48:18;;;;;;;43.83;24.47;;;;;;;;;;4361755;32;20158;-75
2020/12/12 04:50:43;;;;;;;47.37;24.93;;;;;;;;;;4360727;32;20209;-75
2020/12/12 04:53:12;;;;;;;54.30;26.37;;;;;;;;;;4374547;32;20461;-76
2020/12/12 04:56:04;;;;;;;43.00;23.93;;;;;;;;;;4361115;32;20511;-76
2020/12/12 04:58:29;;;;;;;59.40;26.93;;;;;;;;;;4357094;32;20178;-75
2020/12/12 05:00:56;;;;;;;47.00;25.07;;;;;;;;;;4360788;32;20178;-75
2020/12/12 05:03:23;;;;;;;48.70;25.53;;;;;;;;;;4374169;32;20139;-76
2020/12/12 05:05:51;;;;;;;243.70;40.53;;;;;;;;;;4359287;32;20170;-76
2020/12/12 05:08:17;;;;;;;55.63;25.47;;;;;;;;;;4366538;32;20200;-76
2020/12/12 05:10:46;;;;;;;75.13;28.47;;;;;;;;;;4361194;32;20504;-76
2020/12/12 05:13:13;;;;;;;49.03;24.73;;;;;;;;;;4374673;32;20210;-76
2020/12/12 05:15:38;;;;;;;76.83;28.27;;;;;;;;;;4362860;32;20174;-76
2020/12/12 05:18:04;;;;;;;71.33;27.30;;;;;;;;;;4363917;32;20162;-76
2020/12/12 05:20:29;;;;;;;48.53;24.40;;;;;;;;;;4363625;32;20220;-75
2020/12/12 05:22:54;;;;;;;43.47;24.03;;;;;;;;;;4363331;32;20162;-75
2020/12/12 05:25:19;;;;;;;53.57;25.87;;;;;;;;;;4363318;32;20170;-75
2020/12/12 05:27:45;;;;;;;47.50;24.93;;;;;;;;;;4363777;32;20185;-76
2020/12/12 05:30:10;;;;;;;103.53;29.90;;;;;;;;;;4378132;32;20218;-75
2020/12/12 05:32:35;;;;;;;67.97;26.87;;;;;;;;;;4363188;32;20181;-75
2020/12/12 05:35:00;;;;;;;76.30;26.07;;;;;;;;;;4363098;32;20185;-75
2020/12/12 05:37:26;;;;;;;45.67;23.53;;;;;;;;;;4376740;32;20543;-75
2020/12/12 05:39:51;;;;;;;78.90;28.20;;;;;;;;;;4363529;32;20503;-75
2020/12/12 05:42:20;;;;;;;52.40;26.27;;;;;;;;;;4362942;32;20528;-75
2020/12/12 05:44:48;;;;;;;41.13;23.23;;;;;;;;;;4376745;32;20225;-75
2020/12/12 05:47:14;;;;;;;55.07;26.30;;;;;;;;;;4363642;32;20316;-74
2020/12/12 05:49:40;;;;;;;43.37;24.30;;;;;;;;;;4363127;32;20170;-75
2020/12/12 05:52:05;;;;;;;44.63;23.83;;;;;;;;;;4363711;32;20185;-75
2020/12/12 05:54:30;;;;;;;45.77;25.27;;;;;;;;;;4363276;32;20504;-75
2020/12/12 05:56:59;;;;;;;93.00;29.03;;;;;;;;;;4362818;32;20594;-75
2020/12/12 05:59:24;;;;;;;43.87;24.23;;;;;;;;;;4376341;32;20135;-75
2020/12/12 06:01:53;;;;;;;68.80;28.13;;;;;;;;;;4362744;32;20204;-75
2020/12/12 06:04:18;;;;;;;50.93;25.40;;;;;;;;;;4363971;32;20222;-75
2020/12/12 06:06:45;;;;;;;60.33;26.17;;;;;;;;;;4376354;32;20556;-75
2020/12/12 06:09:13;;;;;;;47.33;25.27;;;;;;;;;;4363192;32;20596;-75
2020/12/12 06:11:45;;;;;;;50.57;26.00;;;;;;;;;;4376057;32;20134;-75
2020/12/12 06:14:10;;;;;;;68.83;28.87;;;;;;;;;;4376267;32;20157;-75
2020/12/12 06:16:36;;;;;;;68.60;26.30;;;;;;;;;;4376180;32;20134;-75
2020/12/12 06:19:06;;;;;;;47.93;26.40;;;;;;;;;;4363149;32;20158;-75
2020/12/12 06:21:32;;;;;;;51.23;25.03;;;;;;;;;;4375987;32;20167;-75
2020/12/12 06:23:58;;;;;;;92.30;30.70;;;;;;;;;;4376352;32;20170;-75
2020/12/12 06:26:38;;;;;;;51.47;25.50;;;;;;;;;;4376161;32;20130;-75
2020/12/12 06:29:04;;;;;;;88.40;29.83;;;;;;;;;;4362386;32;20155;-75
2020/12/12 06:31:33;;;;;;;49.00;24.93;;;;;;;;;;4362307;32;20209;-75
2020/12/12 06:33:58;;;;;;;49.47;24.80;;;;;;;;;;4362306;32;20181;-75
2020/12/12 06:36:31;;;;;;;51.47;25.30;;;;;;;;;;4362063;32;20201;-71
2020/12/12 06:39:15;;;;;;;51.37;24.87;;;;;;;;;;4362224;32;20185;-75
2020/12/12 06:41:40;;;;;;;68.60;26.80;;;;;;;;;;4362106;32;20178;-75
2020/12/12 06:44:06;;;;;;;60.50;26.37;;;;;;;;;;4362059;32;20204;-75
2020/12/12 06:46:50;;;;;;;80.93;29.03;;;;;;;;;;4361978;32;20178;-76
2020/12/12 06:49:15;;;;;;;74.20;29.07;;;;;;;;;;4362408;32;20188;-75
2020/12/12 06:51:41;;;;;;;51.20;26.90;;;;;;;;;;4362583;32;20162;-75
2020/12/12 06:54:07;;;;;;;69.43;28.70;;;;;;;;;;4363205;32;20560;-75
2020/12/12 06:56:32;;;;;;;60.63;27.77;;;;;;;;;;4375900;32;20203;-75
2020/12/12 06:59:17;;;;;;;92.20;31.60;;;;;;;;;;4361701;32;20155;-76
2020/12/12 07:01:50;;;;;;;69.60;27.07;;;;;;;;;;4376039;32;20159;-76
2020/12/12 07:04:21;;;;;;;58.50;27.07;;;;;;;;;;4376315;32;20169;-76
2020/12/12 07:06:54;;;;;;;64.93;26.33;;;;;;;;;;4362688;32;20235;-75
2020/12/12 07:09:19;;;;;;;61.43;26.07;;;;;;;;;;4360134;32;20190;-76
2020/12/12 07:11:46;;;;;;;75.97;29.00;;;;;;;;;;4362261;32;20197;-76
2020/12/12 07:14:11;;;;;;;77.03;26.73;;;;;;;;;;4375457;32;20528;-76
2020/12/12 07:16:37;;;;;;;78.40;28.47;;;;;;;;;;4374982;32;20174;-76
2020/12/12 07:19:03;;;;;;;53.27;26.03;;;;;;;;;;4361720;32;20587;-75
2020/12/12 07:21:28;;;;;;;72.83;28.67;;;;;;;;;;4375102;32;20560;-75
2020/12/12 07:23:54;;;;;;;67.13;28.17;;;;;;;;;;4362107;32;20564;-75
2020/12/12 07:26:19;;;;;;;128.10;33.00;;;;;;;;;;4375560;32;20610;-75
2020/12/12 07:28:44;;;;;;;68.43;27.17;;;;;;;;;;4361388;32;20636;-75
2020/12/12 07:31:10;;;;;;;69.57;28.47;;;;;;;;;;4355787;32;20189;-75
2020/12/12 07:33:35;;;;;;;64.83;27.23;;;;;;;;;;4358196;32;20637;-75
2020/12/12 07:36:00;;;;;;;83.43;28.50;;;;;;;;;;4361870;32;20159;-74
2020/12/12 07:38:27;;;;;;;71.03;27.57;;;;;;;;;;4375336;32;20591;-75
2020/12/12 07:40:52;;;;;;;51.00;25.90;;;;;;;;;;4361180;32;20272;-75
2020/12/12 07:43:18;;;;;;;81.27;27.57;;;;;;;;;;4361092;32;20170;-75
2020/12/12 07:48:09;;;;;;;56.07;26.60;;;;;;;;;;4371020;32;20649;-75
2020/12/12 07:50:34;;;;;;;67.43;28.63;;;;;;;;;;4357528;32;20263;-75
2020/12/12 07:53:06;;;;;;;96.53;30.60;;;;;;;;;;4361216;32;20162;-75
2020/12/12 07:55:33;;;;;;;136.93;33.10;;;;;;;;;;4361281;32;20241;-75
2020/12/12 07:57:59;;;;;;;72.03;28.00;;;;;;;;;;4361141;32;20159;-74
2020/12/12 08:00:24;;;;;;;76.67;28.23;;;;;;;;;;4374638;32;20162;-75
2020/12/12 08:02:58;;;;;;;71.80;27.17;;;;;;;;;;4362188;32;20208;-74
2020/12/12 08:05:24;;;;;;;73.63;28.43;;;;;;;;;;4361757;32;20158;-74
2020/12/12 08:07:49;;;;;;;99.43;29.87;;;;;;;;;;4361260;32;20292;-75
2020/12/12 08:10:15;;;;;;;90.50;29.67;;;;;;;;;;4375580;32;20431;-75
2020/12/12 08:12:42;;;;;;;122.67;31.63;;;;;;;;;;4361110;32;20200;-75
2020/12/12 08:15:09;;;;;;;85.83;32.20;;;;;;;;;;4361101;32;20193;-76
2020/12/12 08:17:35;;;;;;;178.80;37.93;;;;;;;;;;4360960;32;20188;-76
2020/12/12 08:20:01;;;;;;;115.03;33.43;;;;;;;;;;4361151;32;20158;-75
2020/12/12 08:22:27;;;;;;;72.77;29.17;;;;;;;;;;4374327;32;20640;-75
2020/12/12 08:24:52;;;;;;;130.10;38.70;;;;;;;;;;4362996;32;20181;-76
2020/12/12 08:27:22;;;;;;;81.40;34.07;;;;;;;;;;4376190;32;20159;-74
2020/12/12 08:29:49;;;;;;;107.23;39.23;;;;;;;;;;4376313;32;20201;-76
2020/12/12 08:32:34;;;;;;;112.67;41.10;;;;;;;;;;4376328;32;20483;-76
2020/12/12 08:35:13;;;;;;;114.97;43.17;;;;;;;;;;4375541;32;20219;-76
2020/12/12 08:37:39;;;;;;;121.10;40.03;;;;;;;;;;4378237;32;20158;-76
2020/12/12 08:40:08;;;;;;;106.57;35.87;;;;;;;;;;4360733;32;20182;-76
2020/12/12 08:42:33;;;;;;;161.33;44.50;;;;;;;;;;4360578;32;20166;-75
2020/12/12 08:45:17;;;;;;;103.70;36.40;;;;;;;;;;4360628;32;20224;-76
2020/12/12 08:47:43;;;;;;;157.03;42.10;;;;;;;;;;4360908;32;20155;-76
2020/12/12 08:50:08;;;;;;;143.23;40.47;;;;;;;;;;4362220;32;20174;-75
2020/12/12 08:52:34;;;;;;;96.93;38.37;;;;;;;;;;4369460;32;20154;-76
2020/12/12 08:55:00;;;;;;;147.37;41.93;;;;;;;;;;4377600;32;20157;-76
2020/12/12 08:57:26;;;;;;;136.43;39.00;;;;;;;;;;4377060;32;20166;-76
2020/12/12 08:59:58;;;;;;;170.90;39.80;;;;;;;;;;4363532;32;20155;-77
2020/12/12 09:02:24;;;;;;;131.40;35.23;;;;;;;;;;4363411;32;20224;-76
2020/12/12 09:05:04;;;;;;;161.60;37.57;;;;;;;;;;4362820;32;20523;-75
2020/12/12 09:07:29;;;;;;;116.70;35.13;;;;;;;;;;4362956;32;20475;-75
2020/12/12 09:10:05;;;;;;;110.90;34.30;;;;;;;;;;4362974;32;20185;-75
2020/12/12 09:12:41;;;;;;;114.83;38.73;;;;;;;;;;4376550;32;20528;-75
2020/12/12 09:15:07;;;;;;;111.63;37.77;;;;;;;;;;4363805;32;20208;-77
2020/12/12 09:17:32;;;;;;;141.00;41.47;;;;;;;;;;4363303;32;20237;-76
2020/12/12 09:19:57;;;;;;;191.37;40.63;;;;;;;;;;4363385;32;20146;-76
2020/12/12 09:22:22;;;;;;;161.70;40.33;;;;;;;;;;4376816;32;20139;-75
2020/12/12 09:24:48;;;;;;;115.57;36.10;;;;;;;;;;4363102;32;20177;-76
2020/12/12 09:27:13;;;;;;;165.43;39.10;;;;;;;;;;4363036;32;20163;-76
2020/12/12 09:29:38;;;;;;;129.23;35.47;;;;;;;;;;4363036;32;20212;-76
2020/12/12 09:32:03;;;;;;;95.50;34.10;;;;;;;;;;4363337;32;20639;-76
2020/12/12 09:34:29;;;;;;;109.60;33.83;;;;;;;;;;4363279;32;20225;-76
2020/12/12 09:36:54;;;;;;;110.53;34.42;;;;;;;;;;4377240;32;20608;-76
2020/12/12 09:39:19;;;;;;;110.73;34.90;;;;;;;;;;4363191;32;20166;-76
2020/12/12 09:41:45;;;;;;;140.57;38.13;;;;;;;;;;4376610;32;20173;-76
2020/12/12 09:44:10;;;;;;;108.77;35.37;;;;;;;;;;4362773;32;20193;-76
2020/12/12 09:46:36;;;;;;;116.63;33.43;;;;;;;;;;4358040;32;20211;-75
2020/12/12 09:49:01;;;;;;;168.93;36.10;;;;;;;;;;4367888;32;20591;-75
2020/12/12 09:51:27;;;;;;;131.30;37.13;;;;;;;;;;4362404;32;20494;-76
2020/12/12 09:53:53;;;;;;;134.65;34.10;;;;;;;;;;4371112;32;20490;-77
2020/12/12 09:56:18;;;;;;;115.20;33.70;;;;;;;;;;4362641;32;20209;-77
2020/12/12 09:58:44;;;;;;;107.50;31.40;;;;;;;;;;4362653;32;20190;-76
2020/12/12 10:01:09;;;;;;;93.10;28.50;;;;;;;;;;4361981;32;20170;-76
2020/12/12 10:03:34;;;;;;;110.22;29.27;;;;;;;;;;4363672;32;20498;-75
2020/12/12 10:06:00;;;;;;;114.03;30.17;;;;;;;;;;4362468;32;20204;-76
2020/12/12 10:08:25;;;;;;;96.37;29.23;;;;;;;;;;4362536;32;20199;-76
2020/12/12 10:10:53;;;;;;;88.67;29.57;;;;;;;;;;4362934;32;20188;-76
2020/12/12 10:13:19;;;;;;;103.20;30.50;;;;;;;;;;4362014;32;20166;-76
2020/12/12 10:15:44;;;;;;;112.23;31.47;;;;;;;;;;4381037;32;20208;-76
2020/12/12 10:18:10;;;;;;;107.47;31.37;;;;;;;;;;4364221;32;20300;-76
2020/12/12 10:20:36;;;;;;;92.70;28.83;;;;;;;;;;4362954;32;20273;-76
2020/12/12 10:23:01;;;;;;;93.13;29.27;;;;;;;;;;4359219;32;20166;-77
2020/12/12 10:25:27;;;;;;;99.13;30.33;;;;;;;;;;4377299;32;20204;-75
2020/12/12 10:27:52;;;;;;;104.23;30.23;;;;;;;;;;4364316;32;20199;-75
2020/12/12 10:30:17;;;;;;;98.37;30.98;;;;;;;;;;4379985;32;20155;-76
2020/12/12 10:32:43;;;;;;;127.93;33.58;;;;;;;;;;4375675;32;20162;-75
2020/12/12 10:35:09;;;;;;;86.70;28.77;;;;;;;;;;4375468;32;20151;-74
2020/12/12 10:37:34;;;;;;;100.22;30.37;;;;;;;;;;4361823;32;20229;-76
2020/12/12 10:42:25;;;;;;;94.32;29.30;;;;;;;;;;4375161;32;20228;-75
2020/12/12 10:44:50;;;;;;;98.53;28.35;;;;;;;;;;4373777;32;20190;-75
2020/12/12 10:47:16;;;;;;;99.97;29.40;;;;;;;;;;4361619;32;20218;-75
2020/12/12 10:49:41;;;;;;;106.87;30.15;;;;;;;;;;4361495;32;20170;-75
2020/12/12 10:52:06;;;;;;;102.82;30.85;;;;;;;;;;4374757;32;20182;-75
2020/12/12 10:54:32;;;;;;;103.07;30.25;;;;;;;;;;4361071;32;20544;-75
2020/12/12 10:56:57;;;;;;;122.80;32.10;;;;;;;;;;4375453;32;20479;-75
2020/12/12 10:59:22;;;;;;;102.30;31.40;;;;;;;;;;4361210;32;20170;-76
2020/12/12 11:01:54;;;;;;;113.30;30.15;;;;;;;;;;4375324;32;20200;-75
2020/12/12 11:04:19;;;;;;;114.78;31.48;;;;;;;;;;4361243;32;20552;-76
2020/12/12 11:06:45;;;;;;;111.05;32.15;;;;;;;;;;4375005;32;20143;-74
2020/12/12 11:09:10;;;;;;;112.57;30.88;;;;;;;;;;4361148;32;20639;-75
2020/12/12 11:11:39;;;;;;;92.93;30.25;;;;;;;;;;4374513;32;20545;-74
2020/12/12 11:14:04;;;;;;;108.90;31.37;;;;;;;;;;4361450;32;20306;-74
2020/12/12 11:16:29;;;;;;;102.15;31.02;;;;;;;;;;4375030;32;20166;-74
2020/12/12 11:18:55;;;;;;;103.97;31.80;;;;;;;;;;4374818;32;20507;-75
2020/12/12 11:21:20;;;;;;;112.37;33.83;;;;;;;;;;4360807;32;20680;-74
2020/12/12 11:23:46;;;;;;;106.00;30.25;;;;;;;;;;4374477;32;20182;-75
2020/12/12 11:26:12;;;;;;;104.05;32.25;;;;;;;;;;4361636;32;20162;-74
2020/12/12 11:28:37;;;;;;;100.97;30.45;;;;;;;;;;4374618;32;20255;-75
2020/12/12 11:31:02;;;;;;;93.03;30.12;;;;;;;;;;4374819;32;20580;-74
2020/12/12 11:33:28;;;;;;;93.70;29.52;;;;;;;;;;4374809;32;20231;-75
2020/12/12 11:36:39;;;;;;;96.57;30.37;;;;;;;;;;4375116;32;20135;-75
2020/12/12 11:41:32;;;;;;;87.25;29.92;;;;;;;;;;4368444;32;20702;-75
2020/12/12 11:46:46;;;;;;;80.85;29.08;;;;;;;;;;4374499;32;20178;-75
2020/12/12 11:49:11;;;;;;;86.70;29.92;;;;;;;;;;4374245;32;21339;-75
2020/12/12 11:51:37;;;;;;;83.28;29.15;;;;;;;;;;4374738;32;20174;-75
2020/12/12 11:54:03;;;;;;;79.82;28.75;;;;;;;;;;4361369;32;20159;-75
2020/12/12 11:56:28;;;;;;;80.82;29.70;;;;;;;;;;4389528;32;20181;-75
2020/12/12 11:58:53;;;;;;;82.00;30.12;;;;;;;;;;4375778;32;20469;-75
2020/12/12 12:01:23;;;;;;;82.32;30.08;;;;;;;;;;4375741;32;20196;-75
2020/12/12 12:03:49;;;;;;;87.72;29.60;;;;;;;;;;4377359;32;20216;-74
2020/12/12 12:06:14;;;;;;;94.03;30.55;;;;;;;;;;4374350;32;20270;-75
2020/12/12 12:08:49;;;;;;;90.55;30.30;;;;;;;;;;4375053;32;20519;-76
2020/12/12 12:11:19;;;;;;;94.82;32.35;;;;;;;;;;4375605;32;20127;-75
2020/12/12 12:13:45;;;;;;;76.07;28.92;;;;;;;;;;4374814;32;20261;-75
2020/12/12 12:16:16;;;;;;;85.25;29.90;;;;;;;;;;4374595;32;20151;-75
2020/12/12 12:18:41;;;;;;;73.03;28.23;;;;;;;;;;4374873;32;20197;-75
2020/12/12 12:21:06;;;;;;;76.28;29.65;;;;;;;;;;4360467;32;20206;-76
2020/12/12 12:23:33;;;;;;;76.70;29.37;;;;;;;;;;4383481;32;20147;-75
2020/12/12 12:25:58;;;;;;;63.72;26.42;;;;;;;;;;4362913;32;20223;-76
2020/12/12 12:28:24;;;;;;;70.95;28.10;;;;;;;;;;4389368;32;20130;-75
2020/12/12 12:30:49;;;;;;;64.75;25.90;;;;;;;;;;4364285;32;20226;-75
2020/12/12 12:33:14;;;;;;;62.05;25.52;;;;;;;;;;4375557;32;20154;-75
2020/12/12 12:35:39;;;;;;;58.28;23.85;;;;;;;;;;4368540;32;20143;-74
2020/12/12 12:38:05;;;;;;;55.78;24.00;;;;;;;;;;4371342;32;20237;-74
2020/12/12 12:40:30;;;;;;;54.42;24.15;;;;;;;;;;4374217;32;20204;-76
2020/12/12 12:43:01;;;;;;;56.72;23.75;;;;;;;;;;4374057;32;20147;-75
2020/12/12 12:45:27;;;;;;;59.63;26.15;;;;;;;;;;4360524;32;20167;-76
2020/12/12 12:47:52;;;;;;;52.25;23.48;;;;;;;;;;4360750;32;20170;-75
2020/12/12 12:50:17;;;;;;;61.78;24.05;;;;;;;;;;4360529;32;20170;-76
2020/12/12 12:52:43;;;;;;;54.75;23.75;;;;;;;;;;4373781;32;20475;-76
2020/12/12 12:55:09;;;;;;;57.10;24.63;;;;;;;;;;4360431;32;20163;-76
2020/12/12 12:57:35;;;;;;;58.95;23.67;;;;;;;;;;4360439;32;20185;-75
2020/12/12 13:00:00;;;;;;;56.03;22.73;;;;;;;;;;4374037;32;20154;-75
2020/12/12 13:02:25;;;;;;;52.45;23.52;;;;;;;;;;4376278;32;20202;-75
2020/12/12 13:04:50;;;;;;;53.95;23.45;;;;;;;;;;4375826;32;20218;-75
2020/12/12 13:07:16;;;;;;;51.17;24.58;;;;;;;;;;4374171;32;20135;-76
2020/12/12 13:09:41;;;;;;;49.08;22.37;;;;;;;;;;4359717;32;20304;-76
2020/12/12 13:12:06;;;;;;;48.72;23.23;;;;;;;;;;4363257;32;20817;-75
2020/12/12 13:14:32;;;;;;;51.60;23.60;;;;;;;;;;4385753;32;20572;-75
2020/12/12 13:16:57;;;;;;;50.90;24.02;;;;;;;;;;4374297;32;20240;-75
2020/12/12 13:19:34;;;;;;;50.47;23.05;;;;;;;;;;4374174;32;20142;-75
2020/12/12 13:22:02;;;;;;;52.78;23.75;;;;;;;;;;4374187;32;20138;-75
2020/12/12 13:24:27;;;;;;;53.28;23.17;;;;;;;;;;4357871;32;20643;-74
2020/12/12 13:26:56;;;;;;;57.33;24.17;;;;;;;;;;4372917;32;20173;-76
2020/12/12 13:32:05;;;;;;;55.47;24.33;;;;;;;;;;4374609;32;20169;-75
2020/12/12 13:34:31;;;;;;;61.85;26.00;;;;;;;;;;4360396;32;20167;-76
2020/12/12 13:36:57;;;;;;;56.97;25.42;;;;;;;;;;4376725;32;20143;-75
2020/12/12 13:39:32;;;;;;;54.72;23.98;;;;;;;;;;4376573;32;20242;-76
2020/12/12 13:42:01;;;;;;;57.30;24.70;;;;;;;;;;4362817;32;20213;-80
2020/12/12 13:44:27;;;;;;;52.00;23.17;;;;;;;;;;4363586;32;20645;-79
2020/12/12 13:46:52;;;;;;;59.58;25.15;;;;;;;;;;4363109;32;20166;-79
2020/12/12 13:49:17;;;;;;;58.47;24.33;;;;;;;;;;4362932;32;20198;-79
2020/12/12 13:51:46;;;;;;;54.92;24.35;;;;;;;;;;4376626;32;20139;-79
2020/12/12 13:54:11;;;;;;;59.40;25.60;;;;;;;;;;4362859;32;20218;-79
2020/12/12 13:56:43;;;;;;;65.87;26.48;;;;;;;;;;4362382;32;20236;-78
2020/12/12 13:59:10;;;;;;;60.88;25.37;;;;;;;;;;4376838;32;20135;-77
2020/12/12 14:01:36;;;;;;;59.70;26.25;;;;;;;;;;4362652;32;20167;-80
2020/12/12 14:04:01;;;;;;;52.85;22.87;;;;;;;;;;4363005;32;20241;-80
2020/12/12 14:06:30;;;;;;;56.22;24.12;;;;;;;;;;4376473;32;20201;-80
2020/12/12 14:09:20;;;;;;;53.75;21.67;;;;;;;;;;4362702;32;20235;-78
2020/12/12 14:23:00;;;;;;;34.35;15.30;;;;;;;;;;4376213;32;20170;-79
2020/12/12 14:25:39;;;;;;;36.42;16.23;;;;;;;;;;4362814;32;20182;-79
2020/12/12 14:30:49;;;;;;;29.48;13.80;;;;;;;;;;4376675;32;20521;-80
2020/12/12 14:33:14;;;;;;;31.55;14.20;;;;;;;;;;4362067;32;20162;-79
2020/12/12 14:35:39;;;;;;;30.98;13.77;;;;;;;;;;4362531;32;20162;-80
2020/12/12 14:38:07;;;;;;;30.12;13.35;;;;;;;;;;4362155;32;20212;-79